Santaquin, UT (84655)

7:10 PM MST on January 27, 2015 (GMT -0700)
APRSWXNET Payson UT US | Change Station
CLOSE
Current Station
Personal Weather Station
Location: Santaquin, UT
Elevation: 4652 ft
Nearby Weather Stations

Elev 4652 ft 40.04 °N, 111.74 °W | Updated 35 minutes ago

Mostly Cloudy
Mostly Cloudy
45 °F
Feels Like 45 °F
N
0
Wind Variable Wind from SSW
Gusts 0.0 mph

Today
High -- | Low -- °F
--% Chance of Precip.
Yesterday
High -- | Low -- °F
Precip. -- in
7:40 AM 5:39 PM
First Quarter, 60% visible
Pressure 30.18 in
Visibility 10.0 miles
Clouds Few 5000 ft
Windchill 45 °F
Dew Point 37 °F
Humidity 72%
Rainfall -999.00 in
Snow Depth Not available.
UV 0 out of 12
Pollen .40 out of 12
Air Quality Not available.
Flu Activity Not available.
METAR KPVU 280155Z 00000KT 10SM FEW050 07/02 A3018

More Conditions Fewer Conditions

Pressure 30.18 in
Visibility 10.0 miles
Clouds Few 5000 ft
Windchill 45 °F
Dew Point 37 °F
Humidity 72%
Rainfall -999.00 in
Snow Depth Not available.
UV 0 out of 12
Pollen .40 out of 12
Air Quality Not available.
Flu Activity Not available.
METAR KPVU 280155Z 00000KT 10SM FEW050 07/02 A3018

More Conditions Fewer Conditions

10-Day Weather Forecast

Almanac

Astronomy

Jan. 27, 2015 Rise Set
Actual Time
Civil Twilight
Nautical Twilight
Astronomical Twilight
Moon
Length of Visible Light
Length of Day
Tomorrow will be .
, % of the Moon is Illuminated

Today's Extremes

State Highs State Lows

Community

WunderPhotos

Upload Photos

1,791,048 photos uploaded!

WunderBlogs® & News

Nearby

Air Quality

  Air Quality AQ Index Pollutant
Not available.

Snow Depth

Station Depth Elevation

Earthquake Activity

City Distance Mag. Time & Date
Minimum magnitude displayed is 2.5.

Coastal Water Temperatures

Place Temperature

Nearby Weather Stations